Terminal Aerodrome Forecast
Issued by NWS Wakefield, VA

Home | Current Version | Previous Version | Text Only | Print | Product List | Glossary On
Versions: 1 2 3 4 5 6 7 8 9 10 11 12 13 14 15 16
241
FTUS41 KAKQ 120541
TAFRIC
TAF
KRIC 120541Z 1206/1306 17009KT P6SM SCT100
     FM120800 18006KT P6SM SKC WS020/21035KT
     FM121000 19006KT P6SM SCT200
     FM121600 25011KT P6SM BKN100
     FM122000 29012G20KT P6SM BKN090
     FM122200 29014KT P6SM SCT070=

USA.gov is the U.S. government's official web portal to all federal, state and local government web resources and services.